Time;durP1;ratioP1;P1;durP2;ratioP2;P2;SDS_P1;SDS_P2;PMS_P1;PMS_P2;Temp;Humidity;BMP_temperature;BMP_pressure;BME280_temperature;BME280_humidity;BME280_pressure;Samples;Min_cycle;Max_cycle;Signal;HPM_P1;HPM_P2
2021/01/16 00:00:56;;;;;;;;;;;;;;;-7.69;81.37;100103.24;1867414;77;20432;-42
2021/01/16 00:03:24;;;;;;;;;;;;;;;-7.69;81.22;100123.59;1867260;77;20245;-41
2021/01/16 00:05:52;;;;;;;;;;;;;;;-7.70;80.91;100125.67;1867509;77;20409;-41
2021/01/16 00:08:21;;;;;;;;;;;;;;;-7.72;80.47;100103.09;1867610;77;20170;-40
2021/01/16 00:10:51;;;;;;;;;;;;;;;-7.76;79.85;100110.12;1867364;77;20392;-42
2021/01/16 00:13:21;;;;;;;;;;;;;;;-7.80;79.02;100131.11;1867136;77;20127;-44
2021/01/16 00:15:49;;;;;;;;;;;;;;;-7.80;78.74;100132.78;1867219;77;20475;-42
2021/01/16 00:18:19;;;;;;;;;;;;;;;-7.82;78.62;100134.41;1867316;77;20135;-40
2021/01/16 00:20:52;;;;;;;;;;;;;;;-7.88;77.97;100132.45;1867349;77;20201;-42
2021/01/16 00:23:24;;;;;;;;;;;;;;;-7.96;77.47;100128.66;1867269;76;20234;-43
2021/01/16 00:25:52;;;;;;;;;;;;;;;-8.05;77.14;100114.23;1867225;77;20146;-40
2021/01/16 00:28:22;;;;;;;;;;;;;;;-8.14;76.78;100129.91;1867467;77;20126;-40
2021/01/16 00:30:50;;;;;;;;;;;;;;;-8.26;76.62;100138.22;1867153;77;20422;-41
2021/01/16 00:33:20;;;;;;;;;;;;;;;-8.35;76.54;100109.87;1867448;77;20274;-42
2021/01/16 00:35:49;;;;;;;;;;;;;;;-8.39;76.81;100142.27;1867133;77;20139;-42
2021/01/16 00:38:17;;;;;;;;;;;;;;;-8.40;77.15;100148.57;1867274;77;20253;-42
2021/01/16 00:40:45;;;;;;;;;;;;;;;-8.41;77.52;100150.23;1867322;75;20138;-41
2021/01/16 00:43:15;;;;;;;;;;;;;;;-8.49;77.74;100151.52;1867318;77;20148;-41
2021/01/16 00:45:44;;;;;;;;;;;;;;;-8.60;78.14;100164.94;1867330;77;20473;-41
2021/01/16 00:48:16;;;;;;;;;;;;;;;-8.66;78.62;100179.03;1874226;76;20149;-40
2021/01/16 00:50:46;;;;;;;;;;;;;;;-8.76;78.90;100162.44;1867385;77;20141;-40
2021/01/16 00:53:14;;;;;;;;;;;;;;;-8.94;78.72;100170.39;1867245;77;20128;-41
2021/01/16 00:55:50;;;;;;;;;;;;;;;-9.11;78.71;100176.23;1859109;76;20117;-42
2021/01/16 00:58:19;;;;;;;;;;;;;;;-9.29;79.07;100165.99;1867352;76;20132;-41
2021/01/16 01:00:50;;;;;;;;;;;;;;;-9.40;79.44;100170.91;1867564;76;20243;-42
2021/01/16 01:03:22;;;;;;;;;;;;;;;-9.51;79.89;100184.66;1867477;77;20180;-41
2021/01/16 01:05:51;;;;;;;;;;;;;;;-9.63;80.48;100186.14;1867536;77;20144;-41
2021/01/16 01:08:26;;;;;;;;;;;;;;;-9.73;81.06;100185.17;1867359;76;20224;-41
2021/01/16 01:10:54;;;;;;;;;;;;;;;-9.82;81.55;100188.45;1867027;77;20119;-41
2021/01/16 01:13:22;;;;;;;;;;;;;;;-9.92;82.05;100199.77;1867212;77;20150;-40
2021/01/16 01:15:51;;;;;;;;;;;;;;;-10.01;82.54;100187.83;1867278;77;20182;-42
2021/01/16 01:18:21;;;;;;;;;;;;;;;-10.09;82.93;100196.66;1867313;77;20154;-41
2021/01/16 01:20:48;;;;;;;;;;;;;;;-10.18;83.33;100213.92;1867459;77;20400;-41
2021/01/16 01:23:16;;;;;;;;;;;;;;;-10.25;83.74;100210.56;1867622;77;20139;-41
2021/01/16 01:25:44;;;;;;;;;;;;;;;-10.34;84.08;100223.95;1867044;77;20210;-41
2021/01/16 01:28:12;;;;;;;;;;;;;;;-10.44;84.36;100221.30;1867202;77;20226;-40
2021/01/16 01:30:40;;;;;;;;;;;;;;;-10.54;84.62;100230.00;1867231;77;20388;-40
2021/01/16 01:33:15;;;;;;;;;;;;;;;-10.65;84.91;100225.09;1867216;77;20189;-41
2021/01/16 01:35:44;;;;;;;;;;;;;;;-10.76;85.28;100233.72;1867182;77;20198;-40
2021/01/16 01:38:19;;;;;;;;;;;;;;;-10.86;85.49;100243.67;1868209;77;20284;-42
2021/01/16 01:40:48;;;;;;;;;;;;;;;-10.96;85.82;100243.49;1870872;77;20134;-41
2021/01/16 01:43:16;;;;;;;;;;;;;;;-11.03;86.07;100254.44;1870796;77;20420;-43
2021/01/16 01:45:44;;;;;;;;;;;;;;;-11.10;86.34;100266.23;1871026;77;20186;-40
2021/01/16 01:48:13;;;;;;;;;;;;;;;-11.17;86.61;100270.04;1871080;77;20194;-41
2021/01/16 01:50:41;;;;;;;;;;;;;;;-11.20;86.87;100267.70;1871133;77;20162;-42
2021/01/16 01:53:09;;;;;;;;;;;;;;;-11.23;87.02;100272.58;1871083;77;20138;-42
2021/01/16 01:55:37;;;;;;;;;;;;;;;-11.25;87.23;100274.13;1871088;77;20174;-42
2021/01/16 01:58:07;;;;;;;;;;;;;;;-11.26;87.43;100271.98;1865686;77;20178;-42
2021/01/16 02:00:35;;;;;;;;;;;;;;;-11.27;87.52;100276.55;1870721;77;20209;-41
2021/01/16 02:03:03;;;;;;;;;;;;;;;-11.29;87.64;100277.72;1870894;77;20257;-42
2021/01/16 02:05:31;;;;;;;;;;;;;;;-11.30;87.70;100278.91;1870825;77;20177;-41
2021/01/16 02:07:59;;;;;;;;;;;;;;;-11.33;87.79;100281.23;1870924;77;20226;-42
2021/01/16 02:10:27;;;;;;;;;;;;;;;-11.36;87.84;100283.59;1870554;77;20130;-43
2021/01/16 02:12:56;;;;;;;;;;;;;;;-11.39;87.92;100277.06;1868223;77;20284;-42
2021/01/16 02:15:27;;;;;;;;;;;;;;;-11.41;87.93;100286.20;1867076;76;20134;-42
2021/01/16 02:18:05;;;;;;;;;;;;;;;-11.44;88.03;100288.55;1867264;77;20150;-41
2021/01/16 02:20:36;;;;;;;;;;;;;;;-11.44;88.11;100289.43;1769269;77;20142;-41
2021/01/16 02:27:01;;;;;;;;;;;;;;;-11.45;88.08;100267.44;1929080;74;20253;-41
2021/01/16 02:29:29;;;;;;;;;;;;;;;-11.52;88.04;100287.19;1859039;76;20134;-41
2021/01/16 02:32:02;;;;;;;;;;;;;;;-11.54;88.04;100276.08;1890294;76;20180;-42
2021/01/16 02:34:41;;;;;;;;;;;;;;;-11.54;88.05;100289.99;1865538;76;20212;-39
2021/01/16 02:37:25;;;;;;;;;;;;;;;-11.57;88.07;100284.37;1858851;76;20130;-42
2021/01/16 02:40:17;;;;;;;;;;;;;;;-11.59;88.10;100287.56;1870140;75;20277;-41
2021/01/16 02:43:04;;;;;;;;;;;;;;;-11.64;88.04;100296.52;1861492;76;20194;-41
2021/01/16 02:45:36;;;;;;;;;;;;;;;-11.68;88.04;100304.28;1856154;77;20152;-41
2021/01/16 02:48:25;;;;;;;;;;;;;;;-11.75;87.98;100314.41;1856422;76;20403;-46
2021/01/16 02:50:54;;;;;;;;;;;;;;;-11.80;87.87;100317.04;1856539;77;20228;-41
2021/01/16 02:53:23;;;;;;;;;;;;;;;-11.92;87.76;100312.84;1867632;76;20135;-41
2021/01/16 02:55:51;;;;;;;;;;;;;;;-12.01;87.77;100319.42;1856194;77;20167;-41
2021/01/16 02:58:19;;;;;;;;;;;;;;;-12.10;87.79;100316.31;1856429;76;20281;-40
2021/01/16 03:00:47;;;;;;;;;;;;;;;-12.18;87.80;100323.77;1856145;77;20122;-41
2021/01/16 03:03:15;;;;;;;;;;;;;;;-12.25;87.80;100322.86;1860738;76;20123;-41
2021/01/16 03:05:43;;;;;;;;;;;;;;;-12.33;87.81;100317.67;1888992;76;20131;-42
2021/01/16 03:08:10;;;;;;;;;;;;;;;-12.40;87.86;100316.80;1885692;76;20195;-41
2021/01/16 03:10:38;;;;;;;;;;;;;;;-12.45;87.90;100319.00;1887609;76;20160;-40
2021/01/16 03:13:06;;;;;;;;;;;;;;;-12.51;87.96;100318.20;1856281;76;20185;-40
2021/01/16 03:15:34;;;;;;;;;;;;;;;-12.57;87.97;100317.79;1845436;76;20297;-41
2021/01/16 03:18:02;;;;;;;;;;;;;;;-12.61;88.00;100332.25;1856397;77;20458;-41
2021/01/16 03:20:31;;;;;;;;;;;;;;;-12.66;87.98;100333.56;1838463;76;20523;-40
2021/01/16 03:23:00;;;;;;;;;;;;;;;-12.69;88.01;100336.27;1867418;76;20233;-39
2021/01/16 03:25:29;;;;;;;;;;;;;;;-12.73;88.05;100333.06;1856928;76;20166;-40
2021/01/16 03:27:58;;;;;;;;;;;;;;;-12.78;88.08;100341.94;1856604;77;20184;-41
2021/01/16 03:30:25;;;;;;;;;;;;;;;-12.82;88.08;100348.81;1856287;77;20175;-40
2021/01/16 03:32:54;;;;;;;;;;;;;;;-12.88;88.09;100351.80;1876317;76;20152;-40
2021/01/16 03:35:23;;;;;;;;;;;;;;;-12.92;88.10;100356.11;1889062;76;20132;-40
2021/01/16 03:37:54;;;;;;;;;;;;;;;-12.98;88.11;100357.83;1890438;76;20137;-40
2021/01/16 03:40:22;;;;;;;;;;;;;;;-13.00;88.13;100353.09;1861927;76;20131;-43
2021/01/16 03:42:51;;;;;;;;;;;;;;;-13.01;88.17;100352.97;1855681;77;20213;-41
2021/01/16 03:45:21;;;;;;;;;;;;;;;-13.04;88.17;100363.70;1858576;76;20174;-41
2021/01/16 03:47:50;;;;;;;;;;;;;;;-13.07;88.11;100362.25;1884250;76;20186;-40
2021/01/16 03:50:20;;;;;;;;;;;;;;;-13.08;88.14;100363.39;1842795;76;20227;-41
2021/01/16 03:52:48;;;;;;;;;;;;;;;-13.09;88.10;100364.16;1870733;76;20181;-41
2021/01/16 03:55:16;;;;;;;;;;;;;;;-13.09;88.05;100371.72;1860873;76;20154;-41
2021/01/16 03:57:45;;;;;;;;;;;;;;;-13.10;87.99;100375.89;1855531;77;20121;-40
2021/01/16 04:00:14;;;;;;;;;;;;;;;-13.11;87.91;100377.03;1855611;76;20143;-40
2021/01/16 04:02:42;;;;;;;;;;;;;;;-13.13;87.83;100376.11;1855582;77;20229;-40
2021/01/16 04:05:11;;;;;;;;;;;;;;;-13.15;87.75;100367.16;1862780;76;20184;-42
2021/01/16 04:07:39;;;;;;;;;;;;;;;-13.16;87.67;100369.56;1865413;76;20131;-41
2021/01/16 04:10:08;;;;;;;;;;;;;;;-13.15;87.60;100378.89;1863462;76;20151;-41
2021/01/16 04:12:36;;;;;;;;;;;;;;;-13.14;87.46;100380.65;1875498;76;20188;-42
2021/01/16 04:15:05;;;;;;;;;;;;;;;-13.15;87.35;100389.86;1875282;76;20437;-41
2021/01/16 04:17:33;;;;;;;;;;;;;;;-13.18;87.22;100393.79;1875293;76;20143;-41
2021/01/16 04:20:02;;;;;;;;;;;;;;;-13.20;87.12;100397.87;1876709;76;20398;-40
2021/01/16 04:22:34;;;;;;;;;;;;;;;-13.24;87.06;100402.18;1869263;76;20162;-40
2021/01/16 04:25:04;;;;;;;;;;;;;;;-13.26;87.02;100403.36;1860840;76;20160;-42
2021/01/16 04:27:33;;;;;;;;;;;;;;;-13.26;86.97;100406.26;1889181;76;20145;-41
2021/01/16 04:30:01;;;;;;;;;;;;;;;-13.28;86.92;100409.04;1855753;76;20414;-40
2021/01/16 04:32:30;;;;;;;;;;;;;;;-13.32;86.87;100411.70;1856059;76;20158;-40
2021/01/16 04:34:59;;;;;;;;;;;;;;;-13.36;86.82;100408.10;1844855;77;20195;-41
2021/01/16 04:37:26;;;;;;;;;;;;;;;-13.40;86.77;100411.56;1845571;76;20197;-40
2021/01/16 04:39:54;;;;;;;;;;;;;;;-13.44;86.71;100419.65;1863525;76;20147;-42
2021/01/16 04:42:22;;;;;;;;;;;;;;;-13.49;86.65;100428.14;1855704;76;20381;-40
2021/01/16 04:44:50;;;;;;;;;;;;;;;-13.52;86.64;100429.58;1855477;76;20189;-43
2021/01/16 04:47:20;;;;;;;;;;;;;;;-13.56;86.61;100425.94;1870747;76;20141;-42
2021/01/16 04:49:48;;;;;;;;;;;;;;;-13.57;86.63;100425.81;1855462;76;20141;-41
2021/01/16 04:52:25;;;;;;;;;;;;;;;-13.58;86.67;100432.50;1847785;76;20143;-46
2021/01/16 04:54:54;;;;;;;;;;;;;;;-13.58;86.67;100435.39;1832559;77;20142;-40
2021/01/16 04:57:23;;;;;;;;;;;;;;;-13.57;86.68;100434.64;1857124;76;20421;-42
2021/01/16 04:59:51;;;;;;;;;;;;;;;-13.56;86.72;100436.02;1844527;76;20143;-40
2021/01/16 05:02:22;;;;;;;;;;;;;;;-13.53;86.74;100437.52;1851407;76;20449;-42
2021/01/16 05:04:51;;;;;;;;;;;;;;;-13.49;86.79;100433.56;1875614;76;20165;-42
2021/01/16 05:07:22;;;;;;;;;;;;;;;-13.48;86.74;100446.29;1856385;76;20138;-42
2021/01/16 05:09:50;;;;;;;;;;;;;;;-13.48;86.73;100452.97;1866970;76;20227;-42
2021/01/16 05:12:34;;;;;;;;;;;;;;;-13.45;86.75;100450.66;1870834;76;20371;-41
2021/01/16 05:15:10;;;;;;;;;;;;;;;-13.44;86.76;100466.28;1864433;76;20265;-43
2021/01/16 05:17:41;;;;;;;;;;;;;;;-13.41;86.80;100466.14;1862146;76;20144;-43
2021/01/16 05:20:10;;;;;;;;;;;;;;;-13.35;86.82;100476.67;1855566;76;20117;-44
2021/01/16 05:22:37;;;;;;;;;;;;;;;-13.30;86.81;100482.42;1840711;77;20476;-42
2021/01/16 05:25:07;;;;;;;;;;;;;;;-13.25;86.79;100493.33;1853684;76;20270;-41
2021/01/16 05:27:36;;;;;;;;;;;;;;;-13.19;86.76;100487.47;1855757;76;20424;-44
2021/01/16 05:30:06;;;;;;;;;;;;;;;-13.15;86.72;100491.11;1874430;76;20148;-41
2021/01/16 05:32:34;;;;;;;;;;;;;;;-13.09;86.67;100484.84;1867634;76;20575;-43
2021/01/16 05:35:16;;;;;;;;;;;;;;;-13.03;86.62;100489.45;1858233;76;20358;-42
2021/01/16 05:37:45;;;;;;;;;;;;;;;-12.99;86.54;100483.45;1875358;76;20186;-41
2021/01/16 05:40:14;;;;;;;;;;;;;;;-12.94;86.40;100487.22;1864275;76;20140;-42
2021/01/16 05:42:42;;;;;;;;;;;;;;;-12.93;86.33;100492.73;1878308;76;20313;-41
2021/01/16 05:45:12;;;;;;;;;;;;;;;-12.89;86.22;100498.02;1856827;76;20296;-41
2021/01/16 05:47:42;;;;;;;;;;;;;;;-12.85;86.23;100499.59;1856631;76;20245;-41
2021/01/16 05:50:11;;;;;;;;;;;;;;;-12.78;86.17;100512.27;1858582;76;20755;-42
2021/01/16 05:52:44;;;;;;;;;;;;;;;-12.76;86.10;100515.41;1855575;76;20221;-43
2021/01/16 05:55:14;;;;;;;;;;;;;;;-12.72;86.06;100518.63;1842622;76;20178;-42
2021/01/16 05:57:41;;;;;;;;;;;;;;;-12.67;85.91;100511.41;1850417;76;20207;-42
2021/01/16 06:00:11;;;;;;;;;;;;;;;-12.67;85.76;100521.51;1867124;76;20191;-42
2021/01/16 06:02:39;;;;;;;;;;;;;;;-12.67;85.70;100516.46;1868712;76;20188;-41
2021/01/16 06:05:09;;;;;;;;;;;;;;;-12.68;85.57;100512.17;1855827;76;20176;-42
2021/01/16 06:07:37;;;;;;;;;;;;;;;-12.68;85.50;100519.36;1855412;77;20194;-43
2021/01/16 06:10:09;;;;;;;;;;;;;;;-12.67;85.48;100521.13;1855626;76;20173;-42
2021/01/16 06:12:37;;;;;;;;;;;;;;;-12.63;85.47;100526.00;1855526;76;20180;-44
2021/01/16 06:15:12;;;;;;;;;;;;;;;-12.60;85.35;100520.77;1868721;76;20174;-43
2021/01/16 06:17:43;;;;;;;;;;;;;;;-12.58;85.20;100520.50;1857891;76;20269;-43
2021/01/16 06:20:12;;;;;;;;;;;;;;;-12.57;84.98;100522.64;1860917;76;20475;-42
2021/01/16 06:22:43;;;;;;;;;;;;;;;-12.58;84.82;100516.72;1857597;76;20169;-43
2021/01/16 06:26:58;;;;;;;;;;;;;;;-12.41;84.84;100513.25;1900450;74;20116;-47
2021/01/16 06:29:30;;;;;;;;;;;;;;;-12.36;84.75;100518.23;1861373;75;20219;-43
2021/01/16 06:32:06;;;;;;;;;;;;;;;-12.31;84.54;100529.16;1872644;75;20128;-42
2021/01/16 06:34:38;;;;;;;;;;;;;;;-12.28;84.40;100529.38;1823884;77;20184;-41
2021/01/16 06:37:11;;;;;;;;;;;;;;;-12.25;84.40;100530.84;1881993;75;20484;-43
2021/01/16 06:39:42;;;;;;;;;;;;;;;-12.20;84.33;100524.84;1872950;75;20155;-43
2021/01/16 06:42:14;;;;;;;;;;;;;;;-12.17;84.25;100523.42;1810430;77;20610;-44
2021/01/16 06:44:42;;;;;;;;;;;;;;;-12.12;84.14;100528.41;1835855;77;20149;-42
2021/01/16 06:47:13;;;;;;;;;;;;;;;-12.09;84.01;100530.66;1804698;78;20197;-41
2021/01/16 06:49:41;;;;;;;;;;;;;;;-12.00;84.08;100543.91;1784993;77;20184;-42
2021/01/16 06:52:09;;;;;;;;;;;;;;;-11.93;83.98;100544.44;1833826;77;20125;-44
2021/01/16 06:54:38;;;;;;;;;;;;;;;-11.86;83.88;100544.48;1840304;77;20496;-44
2021/01/16 06:57:13;;;;;;;;;;;;;;;-11.83;83.73;100542.18;1802251;78;20190;-44
2021/01/16 06:59:43;;;;;;;;;;;;;;;-11.79;83.53;100540.34;1808559;78;20180;-44
2021/01/16 07:02:21;;;;;;;;;;;;;;;-11.79;83.37;100531.11;1835678;77;20194;-43
2021/01/16 07:04:52;;;;;;;;;;;;;;;-11.74;83.32;100527.24;1830164;77;20802;-42
2021/01/16 07:07:35;;;;;;;;;;;;;;;-11.68;83.18;100528.00;1843777;77;20213;-43
2021/01/16 07:10:11;;;;;;;;;;;;;;;-11.58;83.16;100523.20;1836009;77;20233;-42
2021/01/16 07:12:46;;;;;;;;;;;;;;;-11.51;82.97;100519.05;1835496;77;20214;-43
2021/01/16 07:15:14;;;;;;;;;;;;;;;-11.39;82.74;100527.45;1834652;77;20202;-45
2021/01/16 07:17:44;;;;;;;;;;;;;;;-11.27;82.60;100528.27;1831270;77;20250;-44
2021/01/16 07:20:14;;;;;;;;;;;;;;;-11.05;82.47;100530.18;1832785;77;20424;-44
2021/01/16 07:22:43;;;;;;;;;;;;;;;-10.87;82.04;100533.02;1831393;77;20150;-44
2021/01/16 07:25:13;;;;;;;;;;;;;;;-10.78;81.60;100541.61;1818393;78;20283;-43
2021/01/16 07:27:41;;;;;;;;;;;;;;;-10.62;81.37;100538.88;1813191;78;20160;-42
2021/01/16 07:30:14;;;;;;;;;;;;;;;-10.40;80.92;100544.06;1829356;77;20466;-44
2021/01/16 07:32:48;;;;;;;;;;;;;;;-10.29;79.95;100545.22;1803660;78;20190;-43
2021/01/16 07:35:25;;;;;;;;;;;;;;;-10.24;79.47;100550.17;1795509;78;20470;-43
2021/01/16 07:37:53;;;;;;;;;;;;;;;-10.15;79.11;100540.59;1786852;78;20192;-43
2021/01/16 07:40:27;;;;;;;;;;;;;;;-10.05;78.64;100553.46;1828647;77;20157;-44
2021/01/16 07:42:57;;;;;;;;;;;;;;;-9.92;78.55;100573.72;1805423;78;20402;-45
2021/01/16 07:45:41;;;;;;;;;;;;;;;-9.90;77.84;100572.52;1833296;77;20522;-44
2021/01/16 07:48:09;;;;;;;;;;;;;;;-10.13;77.49;100573.26;1836769;77;20232;-45
2021/01/16 07:50:38;;;;;;;;;;;;;;;-10.18;77.52;100572.52;1808218;78;20548;-46
2021/01/16 07:53:08;;;;;;;;;;;;;;;-10.16;77.56;100567.98;1804133;78;20457;-42
2021/01/16 07:55:39;;;;;;;;;;;;;;;-10.09;77.41;100570.13;1802721;78;20289;-44
2021/01/16 07:58:35;;;;;;;;;;;;;;;-10.01;77.11;100582.40;1810911;78;20237;-43
2021/01/16 08:01:08;;;;;;;;;;;;;;;-10.01;76.98;100578.20;1777875;78;20204;-44
2021/01/16 08:03:46;;;;;;;;;;;;;;;-9.85;77.21;100580.05;1813561;78;20471;-42
2021/01/16 08:06:18;;;;;;;;;;;;;;;-9.68;76.94;100574.34;1819028;78;20318;-44
2021/01/16 08:09:05;;;;;;;;;;;;;;;-9.47;76.94;100577.31;1810580;78;20178;-43
2021/01/16 08:11:34;;;;;;;;;;;;;;;-9.22;76.31;100581.80;1814097;78;20449;-45
2021/01/16 08:14:06;;;;;;;;;;;;;;;-8.97;75.55;100584.99;1816435;78;20147;-42
2021/01/16 08:16:34;;;;;;;;;;;;;;;-8.85;74.67;100575.94;1780035;78;20431;-43
2021/01/16 08:19:24;;;;;;;;;;;;;;;-8.71;73.91;100573.80;1819918;78;20417;-44
2021/01/16 08:21:55;;;;;;;;;;;;;;;-8.69;73.28;100571.36;1816263;78;20143;-43
2021/01/16 08:24:28;;;;;;;;;;;;;;;-8.70;72.52;100571.75;1813210;78;20206;-44
2021/01/16 08:27:00;;;;;;;;;;;;;;;-8.76;71.77;100572.67;1812231;78;20208;-44
2021/01/16 08:29:28;;;;;;;;;;;;;;;-8.66;71.79;100586.36;1817366;78;20641;-43
2021/01/16 08:32:12;;;;;;;;;;;;;;;-8.53;70.54;100591.75;1814774;78;20174;-44
2021/01/16 08:34:53;;;;;;;;;;;;;;;-8.66;69.72;100583.83;1784600;78;20191;-44
2021/01/16 08:37:36;;;;;;;;;;;;;;;-8.86;68.90;100585.22;1815381;78;21139;-44
2021/01/16 08:40:08;;;;;;;;;;;;;;;-9.05;69.16;100578.97;1813106;78;20201;-45
2021/01/16 08:42:53;;;;;;;;;;;;;;;-8.89;69.88;100582.91;1811364;78;20273;-44
2021/01/16 08:45:21;;;;;;;;;;;;;;;-8.78;69.26;100570.42;1813000;78;20209;-43
2021/01/16 08:47:55;;;;;;;;;;;;;;;-8.86;68.54;100554.73;1814732;78;20203;-44
2021/01/16 08:50:29;;;;;;;;;;;;;;;-9.04;68.00;100556.61;1817552;78;20220;-43
2021/01/16 08:52:58;;;;;;;;;;;;;;;-9.18;67.91;100563.41;1811256;78;20210;-43
2021/01/16 08:55:28;;;;;;;;;;;;;;;-9.14;68.11;100572.98;1808971;78;20499;-44
2021/01/16 08:58:09;;;;;;;;;;;;;;;-9.14;68.09;100553.94;1823463;78;20192;-43
2021/01/16 09:00:38;;;;;;;;;;;;;;;-9.15;68.52;100557.26;1812512;78;20185;-50
2021/01/16 09:03:16;;;;;;;;;;;;;;;-9.04;68.20;100565.10;1811631;78;20184;-46
2021/01/16 09:05:48;;;;;;;;;;;;;;;-9.10;68.10;100560.94;1799645;78;20200;-42
2021/01/16 09:08:22;;;;;;;;;;;;;;;-8.97;68.08;100558.72;1766431;78;20428;-43
2021/01/16 09:10:51;;;;;;;;;;;;;;;-8.83;67.69;100556.59;1813323;78;20214;-44
2021/01/16 09:13:29;;;;;;;;;;;;;;;-8.78;67.42;100542.48;1813493;78;20206;-43
2021/01/16 09:15:58;;;;;;;;;;;;;;;-8.72;67.27;100552.98;1815801;78;20178;-44
2021/01/16 09:18:26;;;;;;;;;;;;;;;-8.70;66.11;100555.63;1812647;78;20137;-42
2021/01/16 09:20:57;;;;;;;;;;;;;;;-8.83;65.28;100549.36;1815707;78;20239;-44
2021/01/16 09:23:36;;;;;;;;;;;;;;;-8.79;65.54;100560.20;1771400;79;20267;-44
2021/01/16 09:26:10;;;;;;;;;;;;;;;-8.57;64.96;100560.61;1815658;78;20213;-45
2021/01/16 09:28:48;;;;;;;;;;;;;;;-8.62;64.53;100552.73;1828014;77;20279;-44
2021/01/16 09:31:24;;;;;;;;;;;;;;;-8.66;63.85;100564.77;1830116;77;20181;-45
2021/01/16 09:33:57;;;;;;;;;;;;;;;-8.82;63.57;100560.89;1826112;77;20178;-45
2021/01/16 09:36:44;;;;;;;;;;;;;;;-8.96;63.80;100568.09;1829532;78;20170;-44
2021/01/16 09:39:17;;;;;;;;;;;;;;;-8.98;64.02;100577.28;1830345;77;20122;-43
2021/01/16 09:41:46;;;;;;;;;;;;;;;-8.97;63.99;100575.22;1784628;77;20289;-44
2021/01/16 09:44:15;;;;;;;;;;;;;;;-8.96;64.25;100582.94;1769027;77;20705;-43
2021/01/16 09:46:44;;;;;;;;;;;;;;;-8.73;64.64;100581.75;1829495;77;20283;-46
2021/01/16 09:49:13;;;;;;;;;;;;;;;-8.64;63.75;100580.98;1799827;78;20172;-44
2021/01/16 09:51:43;;;;;;;;;;;;;;;-8.66;63.51;100559.69;1831375;77;20203;-44
2021/01/16 09:54:16;;;;;;;;;;;;;;;-8.66;63.62;100585.52;1799092;77;20186;-44
2021/01/16 09:56:49;;;;;;;;;;;;;;;-8.52;63.42;100580.41;1827410;77;20277;-44
2021/01/16 09:59:22;;;;;;;;;;;;;;;-8.59;63.12;100600.30;1839558;77;20222;-43
2021/01/16 10:02:02;;;;;;;;;;;;;;;-8.69;63.00;100581.52;1829750;77;20186;-44
2021/01/16 10:04:32;;;;;;;;;;;;;;;-8.64;63.41;100589.87;1811193;77;20579;-45
2021/01/16 10:07:12;;;;;;;;;;;;;;;-8.59;63.66;100582.51;1812332;77;20190;-44
2021/01/16 10:09:48;;;;;;;;;;;;;;;-8.49;63.66;100579.33;1808053;78;20176;-48
2021/01/16 10:12:41;;;;;;;;;;;;;;;-8.36;63.98;100578.74;1797110;78;20184;-43
2021/01/16 10:15:17;;;;;;;;;;;;;;;-8.24;63.74;100571.77;1798953;78;20213;-45
2021/01/16 10:17:47;;;;;;;;;;;;;;;-8.30;63.47;100579.93;1813155;78;20465;-44
2021/01/16 10:20:16;;;;;;;;;;;;;;;-8.28;63.72;100585.11;1821805;78;20192;-44
2021/01/16 10:22:53;;;;;;;;;;;;;;;-8.35;62.62;100566.13;1840244;77;20174;-44
2021/01/16 10:26:51;;;;;;;;;;;;;;;-8.54;62.51;100573.52;1898669;74;20304;-44
2021/01/16 10:29:30;;;;;;;;;;;;;;;-8.57;62.48;100565.70;1855929;75;20178;-44
2021/01/16 10:32:24;;;;;;;;;;;;;;;-8.54;62.29;100569.30;1825290;75;20178;-44
2021/01/16 10:34:59;;;;;;;;;;;;;;;-8.48;62.42;100574.73;1806927;75;20278;-42
2021/01/16 10:37:29;;;;;;;;;;;;;;;-8.37;62.12;100573.17;1877074;75;20229;-44
2021/01/16 10:40:03;;;;;;;;;;;;;;;-8.35;61.93;100571.21;1836500;75;20223;-51
2021/01/16 10:42:44;;;;;;;;;;;;;;;-8.42;61.68;100560.22;1868403;75;20328;-44
2021/01/16 10:45:13;;;;;;;;;;;;;;;-8.38;62.28;100560.86;1872160;75;20179;-45
2021/01/16 10:47:43;;;;;;;;;;;;;;;-8.23;62.38;100566.77;1855915;75;20616;-44
2021/01/16 10:50:24;;;;;;;;;;;;;;;-8.15;61.47;100567.20;1874255;75;20218;-45
2021/01/16 10:53:04;;;;;;;;;;;;;;;-8.31;61.47;100556.98;1873827;75;20207;-45
2021/01/16 10:55:54;;;;;;;;;;;;;;;-8.48;61.78;100560.75;1873430;75;20159;-44
2021/01/16 10:58:22;;;;;;;;;;;;;;;-8.54;62.32;100565.49;1880924;75;20214;-43
2021/01/16 11:00:59;;;;;;;;;;;;;;;-8.58;62.41;100557.20;1869513;75;20291;-44
2021/01/16 11:03:28;;;;;;;;;;;;;;;-8.64;62.63;100568.28;1871900;75;20162;-44
2021/01/16 11:05:58;;;;;;;;;;;;;;;-8.63;63.20;100567.50;1868621;75;20148;-44
2021/01/16 11:08:27;;;;;;;;;;;;;;;-8.48;63.23;100572.19;1869964;75;20123;-44
2021/01/16 11:10:56;;;;;;;;;;;;;;;-8.35;63.30;100571.61;1888574;75;20154;-45
2021/01/16 11:13:28;;;;;;;;;;;;;;;-8.13;63.39;100569.41;1836212;75;20166;-43
2021/01/16 11:16:13;;;;;;;;;;;;;;;-8.01;62.87;100561.60;1850576;77;20178;-45
2021/01/16 11:18:43;;;;;;;;;;;;;;;-7.98;63.10;100565.17;1868864;75;20412;-54
2021/01/16 11:21:11;;;;;;;;;;;;;;;-7.80;62.89;100572.91;1871326;75;20213;-46
2021/01/16 11:23:49;;;;;;;;;;;;;;;-7.73;62.29;100568.64;1870362;75;20182;-44
2021/01/16 11:26:17;;;;;;;;;;;;;;;-7.77;61.88;100582.00;1881212;75;20452;-44
2021/01/16 11:28:55;;;;;;;;;;;;;;;-7.93;61.98;100582.83;1874261;75;20234;-44
2021/01/16 11:31:34;;;;;;;;;;;;;;;-7.91;62.25;100580.38;1871066;75;20138;-44
2021/01/16 11:34:17;;;;;;;;;;;;;;;-7.90;62.38;100584.67;1793910;75;20300;-44
2021/01/16 11:36:58;;;;;;;;;;;;;;;-7.89;62.70;100582.22;1870078;75;20473;-44
2021/01/16 11:39:50;;;;;;;;;;;;;;;-7.77;62.87;100579.45;1834371;75;20272;-44
2021/01/16 11:42:19;;;;;;;;;;;;;;;-7.83;62.63;100583.83;1860548;75;20207;-45
2021/01/16 11:44:57;;;;;;;;;;;;;;;-7.88;62.82;100573.80;1840642;75;20178;-44
2021/01/16 11:47:30;;;;;;;;;;;;;;;-8.08;63.18;100574.38;1864530;75;20173;-45
2021/01/16 11:50:15;;;;;;;;;;;;;;;-8.12;63.71;100578.80;1778250;77;20200;-44
2021/01/16 11:53:10;;;;;;;;;;;;;;;-8.07;64.01;100582.45;1854021;75;20138;-43
2021/01/16 11:55:44;;;;;;;;;;;;;;;-7.93;64.05;100589.58;1835785;75;20197;-44
2021/01/16 11:58:12;;;;;;;;;;;;;;;-7.84;63.68;100586.27;1876111;75;20163;-44
2021/01/16 12:00:40;;;;;;;;;;;;;;;-7.97;63.51;100599.99;1874326;75;20231;-44
2021/01/16 12:03:10;;;;;;;;;;;;;;;-8.17;63.64;100588.72;1869996;75;20198;-44
2021/01/16 12:05:40;;;;;;;;;;;;;;;-8.21;64.01;100574.48;1866480;75;20189;-43
2021/01/16 12:08:08;;;;;;;;;;;;;;;-8.17;64.15;100602.70;1869413;75;20136;-44
2021/01/16 12:10:35;;;;;;;;;;;;;;;-8.12;64.23;100594.05;1875106;75;20161;-43
2021/01/16 12:13:03;;;;;;;;;;;;;;;-8.14;64.40;100590.14;1851738;75;20186;-43
2021/01/16 12:15:31;;;;;;;;;;;;;;;-8.15;64.63;100591.36;1806315;77;20149;-44
2021/01/16 12:18:00;;;;;;;;;;;;;;;-8.15;64.82;100601.53;1873850;75;20191;-44
2021/01/16 12:20:32;;;;;;;;;;;;;;;-8.17;64.75;100606.91;1871300;75;20168;-44
2021/01/16 12:23:01;;;;;;;;;;;;;;;-8.22;64.85;100618.11;1870536;75;20619;-44
2021/01/16 12:25:31;;;;;;;;;;;;;;;-8.27;64.87;100615.67;1836258;75;20566;-44
2021/01/16 12:28:03;;;;;;;;;;;;;;;-8.33;65.08;100611.55;1872155;75;20201;-43
2021/01/16 12:30:36;;;;;;;;;;;;;;;-8.31;65.44;100611.25;1836855;75;20417;-44
2021/01/16 12:33:05;;;;;;;;;;;;;;;-8.31;65.51;100607.44;1836531;75;20192;-44
2021/01/16 12:35:33;;;;;;;;;;;;;;;-8.36;65.62;100610.13;1844900;75;20447;-44
2021/01/16 12:38:10;;;;;;;;;;;;;;;-8.40;65.75;100611.14;1838219;75;20180;-45
2021/01/16 12:41:05;;;;;;;;;;;;;;;-8.51;65.80;100612.66;1826780;75;20233;-45
2021/01/16 12:43:36;;;;;;;;;;;;;;;-8.64;66.03;100606.78;1838044;75;20272;-44
2021/01/16 12:46:06;;;;;;;;;;;;;;;-8.73;66.56;100621.13;1871698;75;20158;-43
2021/01/16 12:48:34;;;;;;;;;;;;;;;-8.80;67.11;100629.17;1859147;75;20285;-44
2021/01/16 12:51:04;;;;;;;;;;;;;;;-8.84;67.50;100629.76;1868981;75;20192;-43
2021/01/16 12:53:34;;;;;;;;;;;;;;;-8.86;67.91;100630.93;1868184;75;20287;-43
2021/01/16 12:56:15;;;;;;;;;;;;;;;-8.84;68.20;100628.88;1868560;75;20193;-43
2021/01/16 12:58:50;;;;;;;;;;;;;;;-8.85;68.38;100631.81;1870798;75;20138;-44
2021/01/16 13:01:19;;;;;;;;;;;;;;;-8.91;68.60;100633.60;1874596;75;20176;-44